createdAt,value
2018-10-18T00:01:10.092Z,22.80
2018-10-18T00:03:38.570Z,22.70
2018-10-18T00:06:07.177Z,22.80
2018-10-18T00:08:36.228Z,23.90
2018-10-18T00:11:04.820Z,24.67
2018-10-18T00:13:33.380Z,23.50
2018-10-18T00:16:02.074Z,22.57
2018-10-18T00:18:30.648Z,22.80
2018-10-18T00:20:59.124Z,23.60
2018-10-18T00:23:27.836Z,23.97
2018-10-18T00:25:56.345Z,23.37
2018-10-18T00:28:24.853Z,22.67
2018-10-18T00:30:53.443Z,23.33
2018-10-18T00:33:22.034Z,23.70
2018-10-18T00:35:50.617Z,22.87
2018-10-18T00:38:19.123Z,21.97
2018-10-18T00:40:47.544Z,22.77
2018-10-18T00:43:17.207Z,22.73
2018-10-18T00:45:45.651Z,22.90
2018-10-18T00:48:14.299Z,22.67
2018-10-18T00:50:43.462Z,23.90
2018-10-18T00:53:12.043Z,22.17
2018-10-18T00:55:40.873Z,22.00
2018-10-18T00:58:09.505Z,23.13
2018-10-18T01:00:38.422Z,23.33
2018-10-18T01:03:07.073Z,22.50
2018-10-18T01:05:35.700Z,22.93
2018-10-18T01:08:04.635Z,24.20
2018-10-18T01:10:33.188Z,24.73
2018-10-18T01:13:01.848Z,23.47
2018-10-18T01:15:30.371Z,23.67
2018-10-18T01:17:58.853Z,22.93
2018-10-18T01:20:27.408Z,24.47
2018-10-18T01:22:55.858Z,22.00
2018-10-18T01:25:24.346Z,23.47
2018-10-18T01:27:53.485Z,23.97
2018-10-18T01:30:21.942Z,24.40
2018-10-18T01:32:50.485Z,23.03
2018-10-18T01:35:19.356Z,22.40
2018-10-18T01:37:49.508Z,22.60
2018-10-18T01:40:18.159Z,22.17
2018-10-18T01:42:46.755Z,23.77
2018-10-18T01:45:15.264Z,21.27
2018-10-18T01:47:43.756Z,23.17
2018-10-18T01:50:12.454Z,21.63
2018-10-18T01:52:41.603Z,23.57
2018-10-18T01:55:10.157Z,22.83
2018-10-18T01:57:38.673Z,22.00
2018-10-18T02:00:08.375Z,21.23
2018-10-18T02:02:36.883Z,23.00
2018-10-18T02:05:05.530Z,22.33
2018-10-18T02:07:34.113Z,20.37
2018-10-18T02:10:02.709Z,21.10
2018-10-18T02:12:31.260Z,20.70
2018-10-18T02:14:59.677Z,20.57
2018-10-18T02:17:29.113Z,21.27
2018-10-18T02:19:57.832Z,21.13
2018-10-18T02:22:26.328Z,21.13
2018-10-18T02:24:55.015Z,20.73
2018-10-18T02:27:24.487Z,21.70
2018-10-18T02:29:53.274Z,21.53
2018-10-18T02:32:22.466Z,19.60
2018-10-18T02:34:50.926Z,20.00
2018-10-18T02:37:19.686Z,21.13
2018-10-18T02:39:48.299Z,20.93
2018-10-18T02:42:17.090Z,20.83
2018-10-18T02:44:45.559Z,20.70
2018-10-18T02:47:14.181Z,21.53
2018-10-18T02:49:42.886Z,22.03
2018-10-18T02:52:11.820Z,20.60
2018-10-18T02:54:40.410Z,22.43
2018-10-18T02:57:08.952Z,21.87
2018-10-18T02:59:37.440Z,21.30
2018-10-18T03:02:06.770Z,21.57
2018-10-18T03:04:35.252Z,20.87
2018-10-18T03:07:04.903Z,21.48
2018-10-18T03:09:34.261Z,20.80
2018-10-18T03:12:02.774Z,21.77
2018-10-18T03:14:31.401Z,21.13
2018-10-18T03:17:00.085Z,22.30
2018-10-18T03:19:28.686Z,22.57
2018-10-18T03:21:57.267Z,20.90
2018-10-18T03:24:25.745Z,22.83
2018-10-18T03:26:54.208Z,21.47
2018-10-18T03:29:22.725Z,21.27
2018-10-18T03:31:51.460Z,22.77
2018-10-18T03:34:20.644Z,22.37
2018-10-18T03:36:49.224Z,22.03
2018-10-18T03:39:17.733Z,22.07
2018-10-18T03:41:46.981Z,23.10
2018-10-18T03:44:15.592Z,23.20
2018-10-18T03:46:44.077Z,21.53
2018-10-18T03:49:12.666Z,23.13
2018-10-18T03:51:41.101Z,23.33
2018-10-18T03:54:09.763Z,24.37
2018-10-18T03:56:38.214Z,22.17
2018-10-18T03:59:07.157Z,22.80
2018-10-18T04:01:35.622Z,21.90
2018-10-18T04:04:04.093Z,22.03
2018-10-18T04:06:32.676Z,23.23
2018-10-18T04:09:01.265Z,22.20
2018-10-18T04:11:29.771Z,24.33
2018-10-18T04:13:58.211Z,24.30
2018-10-18T04:16:28.252Z,23.30
2018-10-18T04:18:56.820Z,24.00
2018-10-18T04:21:27.002Z,23.43
2018-10-18T04:23:55.529Z,22.87
2018-10-18T04:26:23.954Z,25.40
2018-10-18T04:28:52.706Z,24.13
2018-10-18T04:31:21.242Z,30.97
2018-10-18T04:33:49.730Z,27.30
2018-10-18T04:36:18.293Z,23.67
2018-10-18T04:38:46.750Z,25.53
2018-10-18T04:41:15.975Z,29.13
2018-10-18T04:43:44.690Z,25.30
2018-10-18T04:46:13.199Z,24.73
2018-10-18T04:48:42.148Z,23.03
2018-10-18T04:51:10.643Z,23.67
2018-10-18T04:53:39.179Z,24.63
2018-10-18T04:56:07.661Z,24.27
2018-10-18T04:58:36.168Z,24.00
2018-10-18T05:01:04.624Z,22.70
2018-10-18T05:03:34.097Z,23.93
2018-10-18T05:06:03.987Z,22.30
2018-10-18T05:08:32.473Z,24.90
2018-10-18T05:11:01.174Z,25.07
2018-10-18T05:13:29.738Z,25.37
2018-10-18T05:15:59.047Z,23.50
2018-10-18T05:18:27.520Z,24.00
2018-10-18T05:20:56.384Z,25.43
2018-10-18T05:23:25.096Z,25.10
2018-10-18T05:25:53.589Z,23.20
2018-10-18T05:28:22.304Z,25.87
2018-10-18T05:30:50.855Z,23.87
2018-10-18T05:33:19.326Z,25.00
2018-10-18T05:35:47.960Z,24.47
2018-10-18T05:38:17.038Z,23.83
2018-10-18T05:40:45.965Z,24.63
2018-10-18T05:43:14.511Z,27.13
2018-10-18T05:45:42.905Z,23.27
2018-10-18T05:48:11.830Z,25.00
2018-10-18T05:50:40.252Z,24.43
2018-10-18T05:53:08.972Z,23.70
2018-10-18T05:55:37.327Z,24.50
2018-10-18T05:58:06.095Z,22.63
2018-10-18T06:00:34.634Z,22.77
2018-10-18T06:03:03.187Z,21.13
2018-10-18T06:05:31.640Z,21.07
2018-10-18T06:08:00.200Z,21.00
2018-10-18T06:10:39.809Z,22.27
2018-10-18T06:13:08.522Z,22.10
2018-10-18T06:15:37.572Z,22.00
2018-10-18T06:18:06.447Z,20.97
2018-10-18T06:20:35.004Z,21.30
2018-10-18T06:23:03.619Z,19.87
2018-10-18T06:25:32.026Z,20.47
2018-10-18T06:28:00.997Z,19.63
2018-10-18T06:30:29.513Z,19.87
2018-10-18T06:32:57.971Z,19.27
2018-10-18T06:35:26.569Z,18.20
2018-10-18T06:37:55.129Z,17.83
2018-10-18T06:40:23.729Z,18.13
2018-10-18T06:42:52.525Z,20.03
2018-10-18T06:45:21.202Z,17.83
2018-10-18T06:47:49.849Z,16.53
2018-10-18T06:50:19.795Z,18.73
2018-10-18T06:52:48.463Z,18.87
2018-10-18T06:55:17.288Z,18.63
2018-10-18T06:57:46.413Z,18.40
2018-10-18T07:00:20.741Z,18.20
2018-10-18T07:02:50.130Z,18.90
2018-10-18T07:05:18.863Z,17.02
2018-10-18T07:07:47.499Z,18.77
2018-10-18T07:10:16.713Z,19.03
2018-10-18T07:12:49.497Z,18.27
2018-10-18T07:15:19.050Z,17.80
2018-10-18T07:17:48.578Z,19.93
2018-10-18T07:20:18.347Z,17.50
2018-10-18T07:22:47.287Z,17.93
2018-10-18T07:25:18.584Z,17.07
2018-10-18T07:27:47.124Z,16.83
2018-10-18T07:30:16.314Z,16.87
2018-10-18T07:32:45.223Z,16.33
2018-10-18T07:35:15.093Z,16.97
2018-10-18T07:37:43.680Z,16.93
2018-10-18T07:40:15.507Z,16.40
2018-10-18T07:42:44.673Z,15.83
2018-10-18T07:45:13.919Z,15.13
2018-10-18T07:47:43.049Z,15.70
2018-10-18T07:50:12.165Z,16.00
2018-10-18T07:52:40.731Z,16.40
2018-10-18T07:57:47.858Z,15.07
2018-10-18T08:00:16.828Z,15.43
2018-10-18T08:02:46.030Z,15.23
2018-10-18T08:05:15.150Z,16.00
2018-10-18T08:07:43.934Z,16.67
2018-10-18T08:10:19.793Z,16.60
2018-10-18T08:12:48.276Z,15.93
2018-10-18T08:15:17.543Z,16.10
2018-10-18T08:17:46.524Z,15.83
2018-10-18T08:20:15.414Z,14.83
2018-10-18T08:22:44.494Z,16.77
2018-10-18T08:25:13.057Z,15.93
2018-10-18T08:27:41.582Z,15.57
2018-10-18T08:30:11.985Z,14.90
2018-10-18T08:32:40.827Z,15.70
2018-10-18T08:35:10.500Z,15.27
2018-10-18T08:37:39.556Z,14.20
2018-10-18T08:40:14.869Z,14.50
2018-10-18T08:42:43.574Z,15.77
2018-10-18T08:45:12.625Z,14.93
2018-10-18T08:47:41.828Z,14.50
2018-10-18T08:50:12.192Z,14.30
2018-10-18T08:52:40.966Z,13.67
2018-10-18T08:55:12.302Z,14.83
2018-10-18T08:57:41.112Z,15.30
2018-10-18T09:00:11.373Z,13.47
2018-10-18T09:02:40.841Z,13.03
2018-10-18T09:05:09.754Z,13.23
2018-10-18T09:07:38.601Z,13.77
2018-10-18T09:10:08.007Z,13.47
2018-10-18T09:12:36.941Z,12.53
2018-10-18T09:15:07.505Z,13.10
2018-10-18T09:17:37.337Z,12.57
2018-10-18T09:25:00.407Z,13.10
2018-10-18T09:27:29.640Z,12.27
2018-10-18T09:29:58.333Z,12.60
2018-10-18T09:32:26.985Z,12.83
2018-10-18T09:34:55.469Z,12.90
2018-10-18T09:37:24.298Z,12.10
2018-10-18T09:39:53.689Z,11.50
2018-10-18T09:42:23.135Z,11.70
2018-10-18T09:44:51.596Z,10.33
2018-10-18T09:47:20.181Z,9.93
2018-10-18T09:49:48.893Z,9.73
2018-10-18T09:52:17.856Z,9.47
2018-10-18T09:54:46.631Z,9.03
2018-10-18T09:57:15.217Z,9.60
2018-10-18T09:59:47.824Z,8.83
2018-10-18T10:02:22.175Z,8.80
2018-10-18T10:04:50.623Z,8.40
2018-10-18T10:07:19.354Z,9.00
2018-10-18T10:09:47.868Z,7.97
2018-10-18T10:12:17.256Z,8.03
2018-10-18T10:14:45.974Z,7.70
2018-10-18T10:17:14.560Z,7.47
2018-10-18T10:19:43.948Z,7.40
2018-10-18T10:22:12.454Z,6.00
2018-10-18T16:46:03.753Z,7.10
2018-10-18T16:48:32.186Z,6.00
2018-10-18T16:51:01.734Z,6.10
2018-10-18T16:53:30.528Z,7.17
2018-10-18T16:55:59.293Z,6.23
2018-10-18T16:58:28.318Z,5.57
2018-10-18T17:00:56.813Z,6.57
2018-10-18T17:03:25.508Z,6.83
2018-10-18T17:05:55.218Z,8.40
2018-10-18T17:08:23.850Z,7.63
2018-10-18T17:10:52.722Z,7.03
2018-10-18T17:13:21.648Z,7.07
2018-10-18T17:15:50.198Z,7.37
2018-10-18T17:18:18.794Z,7.27
2018-10-18T17:20:47.459Z,6.70
2018-10-18T17:23:16.064Z,6.47
2018-10-18T17:25:44.725Z,7.13
2018-10-18T17:28:13.452Z,6.90
2018-10-18T17:30:42.222Z,7.50
2018-10-18T17:33:11.528Z,9.03
2018-10-18T17:35:40.264Z,6.70
2018-10-18T17:38:09.129Z,7.40
2018-10-18T17:40:38.031Z,6.57
2018-10-18T17:43:06.615Z,6.30
2018-10-18T17:45:35.534Z,7.00
2018-10-18T17:48:04.550Z,7.57
2018-10-18T17:50:33.144Z,7.10
2018-10-18T17:53:01.999Z,7.77
2018-10-18T17:55:31.302Z,7.10
2018-10-18T17:58:00.714Z,7.27
2018-10-18T18:00:29.214Z,13.47
2018-10-18T18:02:57.852Z,8.53
2018-10-18T18:05:26.578Z,8.90
2018-10-18T18:07:55.175Z,9.53
2018-10-18T18:10:24.476Z,10.50
2018-10-18T18:12:53.167Z,10.20
2018-10-18T18:32:57.330Z,10.97
2018-10-18T18:35:26.348Z,12.05
2018-10-18T18:38:01.758Z,12.17
2018-10-18T18:40:31.578Z,13.03
2018-10-18T18:43:00.511Z,10.90
2018-10-18T18:45:34.851Z,10.63
2018-10-18T18:48:04.690Z,14.93
2018-10-18T18:50:34.080Z,18.90
2018-10-18T18:53:03.264Z,10.10
2018-10-18T18:55:31.941Z,10.90
2018-10-18T18:58:01.247Z,12.27
2018-10-18T19:00:30.238Z,11.67
2018-10-18T19:02:59.018Z,9.60
2018-10-18T19:05:29.289Z,10.67
2018-10-18T19:07:58.281Z,11.57
2018-10-18T19:10:27.108Z,11.53
2018-10-18T19:12:55.692Z,14.10
2018-10-18T19:15:24.576Z,10.07
2018-10-18T19:17:53.499Z,10.23
2018-10-18T19:20:22.462Z,10.50
2018-10-18T19:22:51.373Z,10.07
2018-10-18T19:25:20.057Z,12.57
2018-10-18T19:27:48.736Z,14.93
2018-10-18T19:30:18.209Z,29.47
2018-10-18T19:32:47.471Z,24.50
2018-10-18T19:35:16.435Z,29.07
2018-10-18T19:37:48.488Z,27.30
2018-10-18T19:40:17.931Z,19.80
2018-10-18T19:42:46.552Z,17.77
2018-10-18T19:45:15.232Z,18.47
2018-10-18T19:47:44.005Z,17.70
2018-10-18T19:50:13.230Z,16.27
2018-10-18T19:52:42.711Z,15.33
2018-10-18T19:55:12.536Z,15.13
2018-10-18T19:57:41.477Z,13.27
2018-10-18T20:00:10.676Z,11.23
2018-10-18T20:02:39.327Z,10.57
2018-10-18T20:05:08.586Z,9.97
2018-10-18T20:07:38.313Z,10.33
2018-10-18T20:10:08.774Z,9.43
2018-10-18T20:12:37.439Z,8.83
2018-10-18T20:15:07.818Z,9.83
2018-10-18T20:17:36.469Z,9.63
2018-10-18T20:20:06.052Z,8.40
2018-10-18T20:22:39.600Z,9.70
2018-10-18T20:25:09.225Z,8.63
2018-10-18T20:27:38.215Z,8.67
2018-10-18T20:30:11.285Z,9.30
2018-10-18T20:32:39.922Z,8.57
2018-10-18T20:35:09.293Z,9.30
2018-10-18T20:37:38.175Z,8.17
2018-10-18T20:40:09.148Z,8.57
2018-10-18T20:42:37.712Z,8.17
2018-10-18T20:45:07.916Z,7.10
2018-10-18T20:47:37.101Z,7.70
2018-10-18T20:50:06.069Z,8.03
2018-10-18T20:52:35.310Z,7.67
2018-10-18T20:55:04.036Z,7.13
2018-10-18T20:57:35.824Z,7.03
2018-10-18T21:00:04.898Z,7.93
2018-10-18T21:02:34.342Z,6.77
2018-10-18T21:05:03.151Z,8.13
2018-10-18T21:07:32.115Z,7.30
2018-10-18T21:10:01.326Z,7.63
2018-10-18T21:12:30.265Z,8.20
2018-10-18T21:14:59.077Z,10.13
2018-10-18T21:17:27.664Z,11.13
2018-10-18T21:19:57.095Z,11.27
2018-10-18T21:22:26.143Z,12.13
2018-10-18T21:24:56.997Z,13.80
2018-10-18T21:27:25.660Z,13.40
2018-10-18T21:29:59.769Z,14.27
2018-10-18T21:32:28.396Z,14.73
2018-10-18T21:34:57.051Z,16.13
2018-10-18T21:37:25.648Z,15.00
2018-10-18T21:39:54.302Z,17.90
2018-10-18T21:42:22.962Z,19.10
2018-10-18T21:44:52.528Z,19.53
2018-10-18T21:47:21.420Z,18.80
2018-10-18T21:49:50.137Z,17.43
2018-10-18T21:52:19.340Z,16.60
2018-10-18T21:54:47.937Z,18.27
2018-10-18T21:57:16.517Z,16.53
2018-10-18T21:59:45.267Z,16.17
2018-10-18T22:02:14.622Z,15.00
2018-10-18T22:04:43.352Z,14.73
2018-10-18T22:07:12.121Z,14.67
2018-10-18T22:09:40.769Z,14.03
2018-10-18T22:12:09.689Z,13.53
2018-10-18T22:14:38.294Z,14.60
2018-10-18T22:17:07.071Z,13.27
2018-10-18T22:19:35.513Z,12.67
2018-10-18T22:22:04.084Z,12.17
2018-10-18T22:24:32.731Z,11.90
2018-10-18T22:27:01.304Z,12.40
2018-10-18T22:29:32.867Z,12.50
2018-10-18T22:32:01.460Z,13.27
2018-10-18T22:34:30.113Z,13.90
2018-10-18T22:36:58.610Z,13.57
2018-10-18T22:39:27.190Z,14.70
2018-10-18T22:41:56.711Z,13.10
2018-10-18T22:44:25.398Z,14.90
2018-10-18T22:46:54.104Z,11.77
2018-10-18T22:49:22.923Z,14.57
2018-10-18T22:51:52.133Z,13.93
2018-10-18T22:54:21.451Z,14.67
2018-10-18T22:56:50.090Z,14.30
2018-10-18T22:59:18.766Z,12.93
2018-10-18T23:01:47.312Z,13.23
2018-10-18T23:04:16.034Z,14.20
2018-10-18T23:06:44.849Z,14.20
2018-10-18T23:09:13.838Z,13.73
2018-10-18T23:11:42.475Z,15.17
2018-10-18T23:14:11.485Z,15.23
2018-10-18T23:16:40.463Z,15.63
2018-10-18T23:19:10.045Z,15.50
2018-10-18T23:21:38.546Z,15.83
2018-10-18T23:24:07.435Z,14.00
2018-10-18T23:26:36.220Z,16.43
2018-10-18T23:29:05.291Z,16.73
2018-10-18T23:31:33.841Z,17.43
2018-10-18T23:34:02.389Z,17.57
2018-10-18T23:36:31.289Z,17.23
2018-10-18T23:38:59.899Z,16.83
2018-10-18T23:41:28.641Z,17.20
2018-10-18T23:43:57.317Z,17.43
2018-10-18T23:46:25.934Z,17.10
2018-10-18T23:48:54.438Z,18.80
2018-10-18T23:51:23.466Z,15.87
2018-10-18T23:53:52.121Z,16.63
2018-10-18T23:56:20.652Z,18.33
2018-10-18T23:58:49.300Z,17.67
